Time;durP1;ratioP1;P1;durP2;ratioP2;P2;SDS_P1;SDS_P2;PMS_P1;PMS_P2;Temp;Humidity;BMP_temperature;BMP_pressure;BME280_temperature;BME280_humidity;BME280_pressure;Samples;Min_cycle;Max_cycle;Signal;HPM_P1;HPM_P2
2023/07/06 00:01:48;;;;;;;0.40;0.20;;;;;;;15.79;89.51;100301.09;5003878;28;20511;-51
2023/07/06 00:04:15;;;;;;;0.40;0.20;;;;;;;15.62;89.38;100306.38;4995240;28;20465;-51
2023/07/06 00:06:42;;;;;;;0.40;0.20;;;;;;;15.41;90.35;100305.59;5000316;28;20488;-51
2023/07/06 00:09:09;;;;;;;0.40;0.20;;;;;;;15.43;90.29;100305.53;5007718;28;20502;-50
2023/07/06 00:11:38;;;;;;;0.40;0.20;;;;;;;15.06;91.96;100308.13;5001842;28;20949;-51
2023/07/06 00:14:07;;;;;;;0.50;0.20;;;;;;;15.12;91.24;100312.34;5003520;28;20471;-51
2023/07/06 00:16:34;;;;;;;0.40;0.20;;;;;;;15.23;91.28;100303.81;5004072;28;20520;-51
2023/07/06 00:19:01;;;;;;;0.40;0.20;;;;;;;15.31;91.03;100309.66;5004406;28;20477;-51
2023/07/06 00:21:31;;;;;;;0.43;0.20;;;;;;;15.08;91.91;100318.78;5006779;28;20473;-51
2023/07/06 00:23:58;;;;;;;0.40;0.20;;;;;;;15.13;92.17;100308.72;5006138;28;20516;-51
2023/07/06 00:26:24;;;;;;;0.40;0.20;;;;;;;15.01;92.12;100317.34;5005824;28;20492;-51
2023/07/06 00:28:51;;;;;;;0.40;0.20;;;;;;;15.15;91.55;100316.69;5007344;28;20464;-51
2023/07/06 00:31:32;;;;;;;0.40;0.20;;;;;;;15.03;91.83;100320.81;4999725;28;20501;-51
2023/07/06 00:34:03;;;;;;;0.40;0.20;;;;;;;15.03;92.10;100320.81;5006485;28;20460;-51
2023/07/06 00:36:31;;;;;;;0.40;0.20;;;;;;;14.90;91.84;100320.50;5004378;28;20587;-50
2023/07/06 00:39:01;;;;;;;0.40;0.20;;;;;;;14.82;92.58;100326.22;5002716;28;20587;-50
2023/07/06 00:41:28;;;;;;;0.40;0.20;;;;;;;14.59;92.92;100322.81;5004203;28;20526;-50
2023/07/06 00:43:56;;;;;;;0.40;0.20;;;;;;;14.64;93.70;100327.03;5003979;28;20465;-50
2023/07/06 00:46:29;;;;;;;0.73;0.73;;;;;;;14.49;94.26;100330.38;5002739;28;20508;-52
2023/07/06 00:48:59;;;;;;;0.40;0.20;;;;;;;14.70;93.62;100328.56;4987351;28;20461;-50
2023/07/06 00:51:32;;;;;;;0.40;0.20;;;;;;;14.63;93.78;100322.63;5003596;28;20476;-50
2023/07/06 00:54:05;;;;;;;0.40;0.20;;;;;;;14.46;94.21;100328.72;5003601;28;20465;-50
2023/07/06 00:56:36;;;;;;;0.40;0.20;;;;;;;14.43;93.76;100320.81;5003449;28;21159;-50
2023/07/06 00:59:04;;;;;;;0.40;0.20;;;;;;;14.31;93.38;100328.47;5002886;28;20968;-50
2023/07/06 01:01:37;;;;;;;0.40;0.20;;;;;;;14.19;93.90;100327.22;4998852;28;20460;-50
2023/07/06 01:04:08;;;;;;;0.40;0.20;;;;;;;13.94;94.32;100325.56;5006733;28;20457;-50
2023/07/06 01:06:40;;;;;;;0.40;0.20;;;;;;;13.92;94.49;100321.22;5002808;28;21057;-50
2023/07/06 01:09:08;;;;;;;0.40;0.20;;;;;;;13.75;94.97;100324.59;5000764;28;20471;-50
2023/07/06 01:11:35;;;;;;;0.40;0.20;;;;;;;13.64;95.66;100321.50;4995010;28;20919;-50
2023/07/06 01:14:02;;;;;;;0.40;0.20;;;;;;;13.96;94.69;100322.81;5003492;28;20552;-50
2023/07/06 01:16:39;;;;;;;0.40;0.20;;;;;;;13.78;94.45;100328.94;5005739;28;20518;-50
2023/07/06 01:19:24;;;;;;;0.40;0.20;;;;;;;13.79;94.87;100320.84;4999110;28;20488;-50
2023/07/06 01:22:47;;;;;;;0.40;0.20;;;;;;;14.05;94.18;100325.13;4996967;28;20897;-50
2023/07/06 01:25:32;;;;;;;0.40;0.20;;;;;;;13.86;95.05;100330.38;4904334;29;20533;-50
2023/07/06 01:28:22;;;;;;;0.40;0.20;;;;;;;14.04;94.38;100327.84;5008097;28;20488;-50
2023/07/06 01:31:15;;;;;;;0.40;0.20;;;;;;;13.94;95.42;100324.69;5004795;28;20460;-49
2023/07/06 01:33:53;;;;;;;0.40;0.20;;;;;;;13.91;96.17;100327.50;5001186;28;20465;-49
2023/07/06 01:36:34;;;;;;;0.40;0.20;;;;;;;13.93;95.32;100326.50;5004397;28;20481;-49
2023/07/06 01:39:21;;;;;;;0.40;0.20;;;;;;;13.84;95.80;100336.69;5003950;28;20499;-50
2023/07/06 01:42:09;;;;;;;0.40;0.20;;;;;;;13.66;95.99;100326.78;5002916;28;20472;-50
2023/07/06 01:44:37;;;;;;;0.40;0.20;;;;;;;13.49;97.18;100327.44;4998348;28;20491;-50
2023/07/06 01:47:04;;;;;;;0.40;0.20;;;;;;;13.57;96.35;100336.03;4996964;28;20548;-50
2023/07/06 01:49:33;;;;;;;0.40;0.20;;;;;;;13.24;96.88;100336.41;5005748;28;20471;-50
2023/07/06 01:52:18;;;;;;;0.40;0.20;;;;;;;13.16;97.48;100340.31;4998523;28;20568;-50
2023/07/06 01:54:54;;;;;;;0.40;0.20;;;;;;;13.14;96.69;100339.47;4999589;28;20475;-49
2023/07/06 01:57:27;;;;;;;0.40;0.20;;;;;;;13.12;96.72;100339.53;4997686;28;20484;-50
2023/07/06 01:59:57;;;;;;;0.40;0.20;;;;;;;13.11;96.85;100347.59;5006010;28;20497;-50
2023/07/06 02:02:24;;;;;;;0.40;0.20;;;;;;;13.08;96.65;100345.91;5003422;28;20957;-50
2023/07/06 02:04:52;;;;;;;0.40;0.20;;;;;;;12.85;97.08;100343.22;5008386;28;20536;-50
2023/07/06 02:07:20;;;;;;;0.40;0.20;;;;;;;12.91;98.31;100345.69;4997653;28;20528;-50
2023/07/06 02:09:48;;;;;;;0.40;0.20;;;;;;;12.89;97.85;100340.41;5000318;28;20469;-50
2023/07/06 02:12:14;;;;;;;0.40;0.20;;;;;;;13.04;96.68;100344.31;5001013;28;20469;-49
2023/07/06 02:14:42;;;;;;;0.40;0.20;;;;;;;13.16;96.43;100340.31;5005465;28;20839;-50
2023/07/06 02:17:09;;;;;;;0.40;0.20;;;;;;;13.14;96.18;100340.34;4997073;28;20994;-50
2023/07/06 02:19:38;;;;;;;0.40;0.20;;;;;;;13.14;96.22;100344.81;5005808;28;20960;-50
2023/07/06 02:22:05;;;;;;;0.40;0.20;;;;;;;13.16;96.06;100346.50;5005608;28;20547;-49
2023/07/06 02:24:32;;;;;;;0.40;0.20;;;;;;;13.12;96.64;100338.66;4994070;28;20472;-50
2023/07/06 02:26:58;;;;;;;0.40;0.20;;;;;;;13.08;96.41;100340.59;5040798;22;20597;-51
2023/07/06 02:29:25;;;;;;;0.40;0.20;;;;;;;13.03;96.47;100340.75;5063558;28;20473;-51
2023/07/06 02:31:52;;;;;;;0.40;0.20;;;;;;;12.98;96.25;100342.72;5073409;28;20564;-50
2023/07/06 02:34:24;;;;;;;0.40;0.20;;;;;;;12.87;97.05;100338.69;5074580;28;20466;-50
2023/07/06 02:36:53;;;;;;;0.40;0.20;;;;;;;12.79;96.60;100333.66;5068622;28;20483;-50
2023/07/06 02:39:24;;;;;;;0.40;0.20;;;;;;;12.56;97.47;100334.50;5061384;28;21031;-50
2023/07/06 02:41:54;;;;;;;0.40;0.20;;;;;;;12.43;98.06;100325.19;5055091;28;20554;-50
2023/07/06 02:44:21;;;;;;;0.40;0.20;;;;;;;12.66;97.35;100327.03;5062029;28;20490;-51
2023/07/06 02:46:48;;;;;;;0.40;0.20;;;;;;;12.69;96.84;100334.94;5057623;28;20504;-51
2023/07/06 02:49:16;;;;;;;0.40;0.20;;;;;;;12.76;96.78;100328.47;5064369;28;20468;-50
2023/07/06 02:51:43;;;;;;;0.40;0.20;;;;;;;12.85;96.00;100332.56;5058645;28;20492;-51
2023/07/06 02:54:13;;;;;;;0.40;0.20;;;;;;;12.66;95.62;100327.03;5057545;28;20467;-51
2023/07/06 02:56:42;;;;;;;0.40;0.20;;;;;;;12.40;96.95;100328.84;5060786;28;20822;-51
2023/07/06 02:59:09;;;;;;;0.40;0.20;;;;;;;12.59;96.73;100337.03;5057466;28;20580;-51
2023/07/06 03:01:36;;;;;;;0.40;0.20;;;;;;;12.41;96.57;100343.03;5058497;28;20494;-51
2023/07/06 03:04:10;;;;;;;0.40;0.20;;;;;;;12.41;96.92;100343.03;5056727;28;20471;-50
2023/07/06 03:06:40;;;;;;;0.40;0.20;;;;;;;12.28;96.48;100336.41;5050542;28;20533;-51
2023/07/06 03:09:09;;;;;;;0.40;0.20;;;;;;;12.20;97.19;100341.13;5057450;28;20502;-51
2023/07/06 03:11:36;;;;;;;0.40;0.20;;;;;;;12.19;97.04;100344.69;5052375;28;20474;-51
2023/07/06 03:14:04;;;;;;;0.60;0.60;;;;;;;12.00;97.33;100349.78;5059506;28;20480;-50
2023/07/06 03:16:39;;;;;;;0.40;0.20;;;;;;;12.19;97.48;100342.03;5057150;28;20474;-51
2023/07/06 03:19:08;;;;;;;0.40;0.20;;;;;;;12.14;97.82;100343.06;5062360;28;20837;-50
2023/07/06 03:21:35;;;;;;;0.40;0.20;;;;;;;11.89;97.51;100346.63;5058038;28;20509;-51
2023/07/06 03:24:01;;;;;;;0.40;0.20;;;;;;;11.77;97.25;100350.50;5055963;28;20876;-51
2023/07/06 03:26:29;;;;;;;0.40;0.20;;;;;;;11.65;97.72;100357.13;5050722;28;20514;-51
2023/07/06 03:28:55;;;;;;;0.40;0.20;;;;;;;11.70;97.95;100351.66;5056766;28;21009;-51
2023/07/06 03:31:22;;;;;;;0.40;0.20;;;;;;;11.62;97.78;100357.19;5061214;28;20816;-51
2023/07/06 03:33:48;;;;;;;0.40;0.20;;;;;;;11.44;97.46;100361.31;5055389;28;20467;-51
2023/07/06 03:36:16;;;;;;;0.40;0.20;;;;;;;11.47;98.55;100363.00;5061683;28;20498;-51
2023/07/06 03:38:43;;;;;;;0.40;0.20;;;;;;;11.60;98.08;100371.50;5056279;28;20470;-51
2023/07/06 03:41:12;;;;;;;0.40;0.20;;;;;;;11.60;98.43;100359.03;5057942;28;20470;-51
2023/07/06 03:43:39;;;;;;;0.40;0.20;;;;;;;11.69;98.62;100365.88;5062032;28;20545;-51
2023/07/06 03:46:05;;;;;;;0.40;0.20;;;;;;;11.73;98.58;100362.19;5061231;28;20495;-51
2023/07/06 03:48:32;;;;;;;0.40;0.20;;;;;;;11.81;98.19;100355.75;5062873;28;20505;-51
2023/07/06 03:51:04;;;;;;;0.40;0.20;;;;;;;11.88;98.02;100359.06;5061056;28;20501;-51
2023/07/06 03:53:31;;;;;;;0.40;0.20;;;;;;;12.10;97.46;100370.75;5054247;28;20466;-51
2023/07/06 03:55:58;;;;;;;0.40;0.20;;;;;;;11.93;96.85;100370.47;5059298;28;20485;-51
2023/07/06 03:58:25;;;;;;;0.40;0.20;;;;;;;11.83;98.11;100369.88;5062645;28;20518;-51
2023/07/06 04:00:51;;;;;;;0.40;0.20;;;;;;;12.01;97.71;100375.50;5060704;28;20523;-51
2023/07/06 04:03:18;;;;;;;0.40;0.20;;;;;;;11.88;97.78;100369.72;5063444;28;20562;-51
2023/07/06 04:05:47;;;;;;;0.40;0.20;;;;;;;12.07;98.36;100376.19;5060493;28;20525;-51
2023/07/06 04:08:17;;;;;;;0.40;0.20;;;;;;;12.34;97.54;100374.41;5060364;28;20990;-51
2023/07/06 04:10:44;;;;;;;0.40;0.20;;;;;;;12.37;97.28;100376.94;5061471;28;20989;-51
2023/07/06 04:13:11;;;;;;;0.40;0.20;;;;;;;12.36;98.01;100377.00;5062340;28;20493;-51
2023/07/06 04:15:40;;;;;;;0.40;0.20;;;;;;;12.39;97.91;100379.56;5064083;28;20955;-51
2023/07/06 04:18:07;;;;;;;0.40;0.20;;;;;;;13.11;95.92;100377.81;5061300;28;20568;-51
2023/07/06 04:20:34;;;;;;;0.40;0.20;;;;;;;12.66;96.56;100383.91;5048039;28;20466;-51
2023/07/06 04:23:02;;;;;;;0.40;0.20;;;;;;;12.60;96.71;100388.59;5065544;28;20544;-51
2023/07/06 04:25:31;;;;;;;0.40;0.20;;;;;;;12.66;96.55;100386.59;5057304;28;21002;-50
2023/07/06 04:28:02;;;;;;;0.40;0.20;;;;;;;12.67;97.58;100387.47;5061323;28;20497;-51
2023/07/06 04:30:33;;;;;;;0.40;0.20;;;;;;;12.74;97.85;100384.50;5058963;28;20943;-51
2023/07/06 04:33:00;;;;;;;0.40;0.20;;;;;;;12.85;97.48;100396.59;5059639;28;20963;-51
2023/07/06 04:35:27;;;;;;;0.40;0.20;;;;;;;13.64;95.00;100393.63;5061016;28;20462;-51
2023/07/06 04:37:54;;;;;;;0.40;0.20;;;;;;;14.27;92.41;100399.94;5062703;28;21056;-51
2023/07/06 04:40:21;;;;;;;0.40;0.20;;;;;;;14.86;90.25;100398.34;5060717;28;20470;-51
2023/07/06 04:42:52;;;;;;;0.40;0.20;;;;;;;15.74;85.90;100391.56;5058629;28;20520;-51
2023/07/06 04:45:21;;;;;;;0.40;0.20;;;;;;;16.40;83.25;100394.53;5061506;28;20539;-52
2023/07/06 04:47:51;;;;;;;0.40;0.20;;;;;;;16.73;82.16;100397.34;5059841;28;20486;-52
2023/07/06 04:50:22;;;;;;;0.40;0.20;;;;;;;16.87;82.16;100393.94;5063480;28;20474;-51
2023/07/06 04:52:58;;;;;;;0.40;0.20;;;;;;;17.18;80.50;100401.22;5060081;28;20458;-52
2023/07/06 04:55:27;;;;;;;0.50;0.40;;;;;;;17.55;79.31;100410.81;5058534;28;20461;-51
2023/07/06 04:57:56;;;;;;;0.40;0.20;;;;;;;17.81;77.95;100412.06;5061739;28;20482;-51
2023/07/06 05:00:25;;;;;;;0.40;0.20;;;;;;;17.94;77.37;100410.41;5058146;28;20473;-51
2023/07/06 05:02:58;;;;;;;0.40;0.20;;;;;;;18.11;76.75;100416.66;5063389;28;20985;-52
2023/07/06 05:05:27;;;;;;;0.40;0.20;;;;;;;18.27;75.82;100414.81;5061344;28;20466;-51
2023/07/06 05:07:55;;;;;;;0.40;0.20;;;;;;;18.56;75.16;100410.41;5056191;28;20578;-51
2023/07/06 05:10:21;;;;;;;0.40;0.20;;;;;;;18.78;74.19;100418.97;5063175;28;20469;-52
2023/07/06 05:12:48;;;;;;;0.50;0.20;;;;;;;18.77;73.58;100421.72;5058022;28;20493;-51
2023/07/06 05:15:14;;;;;;;0.40;0.20;;;;;;;18.91;74.43;100413.69;5064692;28;20511;-51
2023/07/06 05:17:41;;;;;;;0.40;0.20;;;;;;;19.07;73.36;100417.19;5058978;28;20487;-52
2023/07/06 05:20:14;;;;;;;0.40;0.20;;;;;;;19.28;71.45;100412.28;5058222;28;20462;-52
2023/07/06 05:22:42;;;;;;;0.40;0.20;;;;;;;19.51;71.01;100408.13;5057108;28;20469;-52
2023/07/06 05:25:11;;;;;;;0.40;0.20;;;;;;;19.70;69.47;100408.72;5058948;28;20843;-53
2023/07/06 05:27:38;;;;;;;0.50;0.20;;;;;;;19.60;70.74;100409.41;5053252;28;20533;-51
2023/07/06 05:30:06;;;;;;;0.40;0.20;;;;;;;20.28;68.74;100415.69;5060763;28;20493;-52
2023/07/06 05:32:32;;;;;;;0.40;0.20;;;;;;;20.00;68.40;100415.78;5058763;28;20535;-52
2023/07/06 05:34:59;;;;;;;0.50;0.30;;;;;;;20.26;68.25;100414.91;5058402;28;20505;-52
2023/07/06 05:37:25;;;;;;;0.50;0.20;;;;;;;20.39;67.74;100417.66;5063784;28;20552;-52
2023/07/06 05:40:03;;;;;;;0.40;0.20;;;;;;;19.97;68.52;100415.97;5059681;28;20679;-51
2023/07/06 05:42:31;;;;;;;0.40;0.20;;;;;;;19.77;69.59;100415.47;5057469;28;20549;-51
2023/07/06 05:44:57;;;;;;;0.40;0.20;;;;;;;20.36;67.43;100420.56;5060519;28;20505;-52
2023/07/06 05:47:24;;;;;;;0.40;0.20;;;;;;;20.22;67.51;100415.22;5059657;28;20559;-51
2023/07/06 05:49:50;;;;;;;0.40;0.20;;;;;;;20.33;67.96;100424.34;5061817;28;21072;-52
2023/07/06 05:52:17;;;;;;;0.50;0.20;;;;;;;20.29;68.13;100432.78;5059426;28;20958;-52
2023/07/06 05:54:43;;;;;;;0.40;0.20;;;;;;;20.15;68.94;100427.38;5054383;28;20474;-52
2023/07/06 05:57:13;;;;;;;0.50;0.20;;;;;;;20.51;67.82;100424.09;5063458;28;20482;-52
2023/07/06 05:59:41;;;;;;;0.40;0.20;;;;;;;20.26;67.42;100428.41;5055924;28;20474;-52
2023/07/06 06:02:09;;;;;;;0.50;0.20;;;;;;;20.63;66.75;100428.69;5064747;28;20461;-52
2023/07/06 06:04:37;;;;;;;0.50;0.20;;;;;;;20.86;66.20;100425.28;5057220;28;20466;-52
2023/07/06 06:07:06;;;;;;;0.40;0.20;;;;;;;20.32;67.66;100427.16;5057132;28;20498;-52
2023/07/06 06:09:33;;;;;;;0.50;0.30;;;;;;;20.96;66.36;100433.59;5059390;28;20521;-52
2023/07/06 06:12:00;;;;;;;0.40;0.20;;;;;;;21.21;64.66;100430.91;5057983;28;20523;-52
2023/07/06 06:14:28;;;;;;;0.40;0.20;;;;;;;21.33;64.07;100425.66;5058210;28;20466;-52
2023/07/06 06:16:56;;;;;;;0.50;0.40;;;;;;;21.31;63.84;100427.59;5053096;28;20478;-52
2023/07/06 06:19:23;;;;;;;0.40;0.20;;;;;;;21.45;63.23;100436.47;5060828;28;20465;-52
2023/07/06 06:21:49;;;;;;;0.50;0.20;;;;;;;21.73;62.16;100435.34;5057764;28;20890;-52
2023/07/06 06:24:17;;;;;;;0.50;0.20;;;;;;;21.87;62.07;100437.03;5060224;28;20488;-52
2023/07/06 06:26:43;;;;;;;0.40;0.20;;;;;;;21.90;60.70;100436.81;5049609;28;20505;-52
2023/07/06 06:29:10;;;;;;;0.50;0.20;;;;;;;21.99;60.92;100435.28;5056451;28;20462;-52
2023/07/06 06:31:42;;;;;;;0.40;0.20;;;;;;;22.10;60.64;100438.97;5059191;28;20967;-52
2023/07/06 06:34:10;;;;;;;0.40;0.20;;;;;;;22.39;59.95;100434.06;5058697;28;20544;-52
2023/07/06 06:36:36;;;;;;;0.50;0.20;;;;;;;21.46;61.89;100451.72;5060697;28;20562;-52
2023/07/06 06:39:04;;;;;;;0.50;0.20;;;;;;;22.15;59.57;100446.72;5060580;28;20466;-52
2023/07/06 06:41:30;;;;;;;0.47;0.20;;;;;;;22.12;60.19;100444.25;5053864;28;20947;-52
2023/07/06 06:43:57;;;;;;;0.43;0.20;;;;;;;22.31;59.57;100452.72;5061983;28;20461;-52
2023/07/06 06:46:23;;;;;;;0.40;0.20;;;;;;;22.39;59.43;100454.88;5055792;28;20553;-52
2023/07/06 06:48:50;;;;;;;0.40;0.20;;;;;;;22.41;59.65;100452.91;5063484;28;20511;-52
2023/07/06 06:51:16;;;;;;;0.40;0.20;;;;;;;22.12;60.26;100453.25;5054786;28;20462;-52
2023/07/06 06:53:46;;;;;;;0.40;0.20;;;;;;;22.20;59.19;100455.38;5059001;28;20566;-52
2023/07/06 06:56:13;;;;;;;0.40;0.20;;;;;;;22.37;58.12;100452.28;5056293;28;20466;-52
2023/07/06 06:58:41;;;;;;;0.50;0.20;;;;;;;22.29;58.06;100449.28;5059240;28;20474;-51
2023/07/06 07:01:10;;;;;;;0.40;0.20;;;;;;;22.18;58.86;100451.91;5057811;28;20473;-52
2023/07/06 07:03:37;;;;;;;0.40;0.20;;;;;;;22.53;58.15;100452.00;5055501;28;20463;-52
2023/07/06 07:06:13;;;;;;;0.50;0.20;;;;;;;22.45;56.16;100455.25;5058338;28;20467;-52
2023/07/06 07:08:50;;;;;;;0.43;0.20;;;;;;;21.94;58.96;100448.31;5056468;28;20528;-52
2023/07/06 07:11:20;;;;;;;0.47;0.20;;;;;;;22.91;56.67;100451.81;5061562;28;20487;-52
2023/07/06 07:13:53;;;;;;;0.40;0.20;;;;;;;22.63;52.52;100453.03;5057613;28;20464;-52
2023/07/06 07:16:21;;;;;;;0.50;0.30;;;;;;;22.94;50.87;100451.56;5055874;28;20818;-52
2023/07/06 07:18:48;;;;;;;0.50;0.20;;;;;;;23.18;49.68;100459.66;5059091;28;20473;-52
2023/07/06 07:21:16;;;;;;;0.40;0.20;;;;;;;23.48;49.10;100453.63;5058771;28;20462;-52
2023/07/06 07:23:44;;;;;;;0.50;0.20;;;;;;;23.55;48.07;100454.84;5059857;28;20875;-52
2023/07/06 07:26:13;;;;;;;0.40;0.20;;;;;;;23.03;47.54;100461.72;5051743;28;20460;-52
2023/07/06 07:28:40;;;;;;;0.40;0.20;;;;;;;23.65;46.52;100455.03;5052958;28;20508;-52
2023/07/06 07:31:11;;;;;;;0.50;0.20;;;;;;;23.38;47.05;100455.34;5055022;28;20466;-52
2023/07/06 07:33:41;;;;;;;0.40;0.20;;;;;;;23.32;46.97;100448.56;5047439;28;20481;-52
2023/07/06 07:36:09;;;;;;;0.50;0.20;;;;;;;23.24;45.69;100447.44;5062675;28;20470;-52
2023/07/06 07:38:36;;;;;;;0.40;0.20;;;;;;;23.53;45.79;100445.13;5052787;28;20919;-52
2023/07/06 07:41:06;;;;;;;0.40;0.20;;;;;;;23.84;43.33;100443.53;5055187;28;20505;-52
2023/07/06 07:43:35;;;;;;;0.50;0.50;;;;;;;23.59;41.74;100456.41;5056464;28;20880;-52
2023/07/06 07:46:04;;;;;;;0.40;0.20;;;;;;;23.42;41.64;100447.81;5057415;28;20494;-52
2023/07/06 07:48:38;;;;;;;0.40;0.20;;;;;;;23.30;41.69;100450.53;5058340;28;20458;-52
2023/07/06 07:51:08;;;;;;;4.00;2.23;;;;;;;24.10;41.22;100452.25;5056030;28;20550;-52
2023/07/06 07:53:39;;;;;;;0.50;0.20;;;;;;;24.36;41.45;100448.28;5057270;28;20441;-52
2023/07/06 07:56:07;;;;;;;0.40;0.20;;;;;;;24.16;40.39;100454.50;5055021;28;20469;-52
2023/07/06 07:58:35;;;;;;;0.50;0.20;;;;;;;24.14;40.35;100445.59;5058874;28;20543;-52
2023/07/06 08:01:05;;;;;;;0.40;0.20;;;;;;;24.37;39.77;100449.13;5055753;28;20502;-52
2023/07/06 08:03:33;;;;;;;0.47;0.20;;;;;;;24.24;40.72;100446.53;5058738;28;20471;-52
2023/07/06 08:06:02;;;;;;;0.50;0.20;;;;;;;23.85;39.16;100451.56;5057184;28;20529;-52
2023/07/06 08:08:32;;;;;;;0.40;0.20;;;;;;;24.27;41.33;100456.31;5063127;28;20991;-51
2023/07/06 08:11:05;;;;;;;0.50;0.20;;;;;;;23.98;40.80;100453.25;5057966;28;20463;-52
2023/07/06 08:13:33;;;;;;;0.50;0.20;;;;;;;24.23;40.87;100453.84;5055308;28;20465;-52
2023/07/06 08:16:01;;;;;;;0.50;0.20;;;;;;;24.13;40.87;100455.63;5057616;28;20473;-52
2023/07/06 08:18:28;;;;;;;0.50;0.20;;;;;;;24.00;41.26;100459.47;5056710;28;21439;-53
2023/07/06 08:20:55;;;;;;;0.43;0.23;;;;;;;23.81;40.50;100452.78;5053793;28;20600;-53
2023/07/06 08:23:49;;;;;;;0.40;0.20;;;;;;;23.59;41.15;100447.38;5050695;28;20943;-53
2023/07/06 08:26:17;;;;;;;0.40;0.20;;;;;;;23.47;40.97;100446.47;5052656;28;20983;-53
2023/07/06 08:28:46;;;;;;;0.50;0.30;;;;;;;23.99;41.38;100444.16;5067933;22;20509;-48
2023/07/06 08:31:14;;;;;;;0.40;0.20;;;;;;;24.40;39.57;100441.63;5041387;28;20464;-48
2023/07/06 08:33:46;;;;;;;0.50;0.30;;;;;;;24.17;38.67;100450.78;5055281;28;20485;-48
2023/07/06 08:36:14;;;;;;;0.50;0.20;;;;;;;23.97;39.36;100446.09;5054888;28;20462;-49
2023/07/06 08:38:43;;;;;;;0.50;0.20;;;;;;;24.22;39.61;100445.81;5047164;28;20517;-48
2023/07/06 08:41:26;;;;;;;0.50;0.20;;;;;;;24.22;39.03;100443.09;5048130;28;20502;-48
2023/07/06 08:43:53;;;;;;;0.40;0.20;;;;;;;24.59;39.20;100446.34;5039125;28;20547;-48
2023/07/06 08:46:20;;;;;;;0.40;0.20;;;;;;;24.88;38.86;100448.44;5048563;28;20498;-49
2023/07/06 08:48:47;;;;;;;0.50;0.20;;;;;;;24.86;38.20;100447.72;5036367;28;21025;-48
2023/07/06 08:51:22;;;;;;;0.47;0.20;;;;;;;24.58;38.16;100446.50;5046829;28;20466;-48
2023/07/06 08:54:00;;;;;;;0.40;0.20;;;;;;;24.29;39.00;100452.47;5037498;28;20813;-48
2023/07/06 08:56:36;;;;;;;0.40;0.20;;;;;;;24.81;38.65;100449.00;5043668;28;20988;-48
2023/07/06 08:59:09;;;;;;;0.50;0.30;;;;;;;24.97;36.80;100456.69;5042354;28;20532;-48
2023/07/06 09:01:37;;;;;;;0.40;0.20;;;;;;;25.50;35.71;100448.47;5040761;28;20925;-48
2023/07/06 09:04:14;;;;;;;0.47;0.20;;;;;;;24.91;36.46;100454.47;5039754;28;20496;-48
2023/07/06 09:06:47;;;;;;;0.50;0.30;;;;;;;24.25;37.70;100445.56;5043714;28;21003;-48
2023/07/06 09:09:14;;;;;;;0.47;0.20;;;;;;;25.34;36.47;100458.94;5046156;28;20502;-48
2023/07/06 09:11:43;;;;;;;0.50;0.30;;;;;;;25.10;36.19;100457.38;5035996;28;20437;-48
2023/07/06 09:14:13;;;;;;;0.50;0.20;;;;;;;25.55;35.26;100458.94;5043014;28;20478;-48
2023/07/06 09:16:55;;;;;;;0.50;0.30;;;;;;;25.02;35.47;100453.59;5047662;28;20458;-48
2023/07/06 09:19:24;;;;;;;0.40;0.20;;;;;;;25.27;36.10;100450.47;5038165;28;20471;-48
2023/07/06 09:21:54;;;;;;;0.50;0.30;;;;;;;24.78;34.91;100443.78;5043552;28;20441;-48
2023/07/06 09:24:27;;;;;;;0.50;0.20;;;;;;;24.79;36.03;100439.22;5034180;28;20838;-49
2023/07/06 09:26:58;;;;;;;0.50;0.23;;;;;;;25.45;35.67;100447.13;5042600;28;20846;-49
2023/07/06 09:29:33;;;;;;;0.50;0.20;;;;;;;25.83;35.82;100451.91;5045394;28;20439;-49
2023/07/06 09:32:16;;;;;;;1.67;1.67;;;;;;;25.71;35.93;100458.47;5039669;28;21012;-49
2023/07/06 09:34:46;;;;;;;0.50;0.20;;;;;;;25.68;34.94;100440.50;5031165;28;20445;-48
2023/07/06 09:37:14;;;;;;;0.43;0.20;;;;;;;25.99;35.02;100446.81;5033868;28;20899;-48
2023/07/06 09:39:41;;;;;;;0.40;0.20;;;;;;;25.42;35.95;100442.81;5042343;28;20441;-48
2023/07/06 09:42:12;;;;;;;0.50;0.20;;;;;;;25.81;35.77;100446.63;5047459;28;20522;-50
2023/07/06 09:44:39;;;;;;;0.50;0.20;;;;;;;25.62;35.22;100439.19;5026169;28;20512;-48
2023/07/06 09:47:11;;;;;;;0.50;0.40;;;;;;;25.80;34.62;100444.03;5043172;28;20566;-48
2023/07/06 09:49:57;;;;;;;0.40;0.20;;;;;;;25.54;35.39;100446.31;5023460;28;20935;-49
2023/07/06 09:52:24;;;;;;;0.50;0.20;;;;;;;26.08;34.24;100436.94;5036939;28;20995;-48
2023/07/06 09:55:00;;;;;;;0.50;0.30;;;;;;;25.98;34.84;100440.50;5041312;28;20437;-48
2023/07/06 09:57:31;;;;;;;0.50;0.30;;;;;;;26.13;35.31;100438.25;5039076;28;20599;-48
2023/07/06 10:00:00;;;;;;;0.50;0.20;;;;;;;25.71;34.89;100439.41;5045293;28;20471;-48
2023/07/06 10:02:57;;;;;;;0.50;0.20;;;;;;;25.90;34.77;100437.59;5036201;28;20572;-48
2023/07/06 10:05:44;;;;;;;0.40;0.20;;;;;;;26.31;34.09;100432.09;5037179;28;20855;-48
2023/07/06 10:08:21;;;;;;;0.50;0.30;;;;;;;26.54;34.09;100436.31;5042346;28;20586;-49
2023/07/06 10:11:05;;;;;;;0.40;0.20;;;;;;;25.99;34.40;100436.78;5040278;28;21024;-48
2023/07/06 10:13:40;;;;;;;0.50;0.30;;;;;;;25.96;34.13;100439.78;5044159;28;20437;-49
2023/07/06 10:16:32;;;;;;;0.50;0.30;;;;;;;25.96;34.59;100428.03;5033516;28;20458;-49
2023/07/06 10:19:11;;;;;;;0.50;0.30;;;;;;;26.21;34.60;100429.38;5032665;28;20950;-49
2023/07/06 10:22:03;;;;;;;0.43;0.27;;;;;;;25.52;35.15;100432.00;5032795;28;20560;-49
2023/07/06 10:24:53;;;;;;;0.50;0.20;;;;;;;25.75;34.00;100429.94;5035541;28;20493;-49
2023/07/06 10:27:25;;;;;;;0.50;0.27;;;;;;;26.19;34.99;100432.25;5039643;28;20513;-49
2023/07/06 10:29:57;;;;;;;0.50;0.20;;;;;;;26.72;33.43;100437.31;5038974;28;20473;-49
2023/07/06 10:32:42;;;;;;;0.50;0.30;;;;;;;26.21;33.45;100432.09;5040092;28;20455;-49
2023/07/06 10:35:20;;;;;;;0.50;0.20;;;;;;;26.47;33.14;100429.72;5044202;28;20490;-49
2023/07/06 10:37:48;;;;;;;0.50;0.30;;;;;;;26.47;32.59;100424.28;5036092;28;20481;-49
2023/07/06 10:40:23;;;;;;;0.50;0.20;;;;;;;26.48;33.19;100432.31;5042511;28;20434;-49
2023/07/06 10:43:08;;;;;;;0.50;0.30;;;;;;;26.58;33.29;100426.84;5046485;28;20497;-50
2023/07/06 10:45:47;;;;;;;1.20;1.20;;;;;;;26.09;33.73;100438.66;5037816;28;20441;-49
2023/07/06 10:48:25;;;;;;;0.50;0.20;;;;;;;25.81;34.32;100440.31;5048310;28;20515;-49
2023/07/06 10:51:05;;;;;;;0.50;0.23;;;;;;;25.98;34.45;100440.50;5038793;28;20443;-50
2023/07/06 10:54:10;;;;;;;0.50;0.20;;;;;;;25.87;34.00;100429.72;5041526;28;20433;-49
2023/07/06 10:56:45;;;;;;;0.50;0.30;;;;;;;25.23;34.12;100424.53;5044545;28;20562;-49
2023/07/06 10:59:23;;;;;;;0.50;0.27;;;;;;;25.78;33.63;100429.69;5043729;28;20429;-49
2023/07/06 11:02:06;;;;;;;0.50;0.20;;;;;;;26.06;34.26;100431.66;5038122;28;20547;-49
2023/07/06 11:04:36;;;;;;;0.50;0.30;;;;;;;25.84;33.89;100427.25;5039076;28;20459;-49
2023/07/06 11:07:04;;;;;;;0.50;0.30;;;;;;;26.46;33.06;100433.47;5043129;28;20491;-49
2023/07/06 11:09:47;;;;;;;0.50;0.20;;;;;;;26.08;32.67;100424.19;5041055;28;20473;-49
2023/07/06 11:12:19;;;;;;;0.50;0.30;;;;;;;26.39;31.78;100421.41;5043194;28;20464;-49
2023/07/06 11:14:47;;;;;;;0.47;0.23;;;;;;;26.21;32.18;100422.06;5032069;28;20858;-48
2023/07/06 11:17:36;;;;;;;0.50;0.30;;;;;;;26.89;32.18;100433.03;5043696;28;20851;-49
2023/07/06 11:20:15;;;;;;;0.50;0.30;;;;;;;26.68;31.36;100419.53;5041418;28;21013;-49
2023/07/06 11:22:44;;;;;;;0.50;0.20;;;;;;;26.54;31.58;100420.81;5034348;28;20977;-49
2023/07/06 11:25:13;;;;;;;0.50;0.27;;;;;;;26.71;31.78;100415.66;5040775;28;20467;-49
2023/07/06 11:27:44;;;;;;;0.50;0.20;;;;;;;27.02;31.25;100421.84;5039958;28;20481;-49
2023/07/06 11:30:24;;;;;;;0.50;0.30;;;;;;;26.56;32.12;100418.81;5044644;28;20458;-49
2023/07/06 11:33:09;;;;;;;0.50;0.30;;;;;;;27.38;31.28;100426.47;5040232;28;20434;-49
2023/07/06 11:35:45;;;;;;;0.50;0.30;;;;;;;26.74;31.06;100424.44;5037452;28;20559;-49
2023/07/06 11:38:48;;;;;;;0.43;0.20;;;;;;;26.82;31.66;100418.22;5041699;28;20448;-50
2023/07/06 11:41:25;;;;;;;0.50;0.30;;;;;;;27.12;31.90;100407.16;5011413;28;20919;-49
2023/07/06 11:44:18;;;;;;;0.50;0.30;;;;;;;27.17;32.14;100412.19;5038131;28;20470;-49